Location:  
MeteoStar

Sort by weather type Sort by elevation Sort by visibility Sort from west to east north Sort from north to south Alphabetically Sort from strongest wind speed Sort from lowest to highest pressure Sort from highest to lowest dew point temperature Sort coolest temperatures to warmest Sort warm temperatures to coolest
 Metric

Current Observations for United Kingdom sorted from lowest visibility

Edinburgh Airport09:20ZMist48 480.311025.2ENE 11 43134
Prestwick Airport09:20ZClear63 520.311022.1NE 12 6365
Benbecula09:20ZClear64 480.311022.1ENE 11 6419
Scatsa / Shetland Island09:20ZClear59 450.311028.2ENE 10 5972
Dundee / Riverside09:20ZNot Avail.61 500.311025.1ESE 11 6113
Culdrose09:00ZNot Avail.58 580.751012.7SE 13 58255
Larkhill09:00ZNot Avail.61 590.871015.2NE 6 61433
Bristol / Lulsgate 09:20ZMist57 5711015.1NE 12 57620
Liverpool Airport 09:20ZNot Avail.68 5411017.1ENE 13 6885
Luton Airport 09:20ZClear70 6311016.1ENE 8 70524
Camborne09:00ZMist59 591.121012.5SE 7 59285
Boscombe Down09:00ZShowers61 591.621015.7ENE 7 61406
Scilly; Saint MaryS09:00ZMist57 571.871011.7ESE 10 57101
Cardinham09:00ZMist58 581.871013.2SE 12 58656
Sennybridge09:00ZShowers55 532.751016.2ENE 8 Gusting to 19 551007
Biggin Hill 09:20ZHaze66 6331016.0NNE 4 66600
Shawbury09:00ZRain57 5531018N 5 57249
Middle Wallop09:00ZNot Avail.62 5931015.4NE 7 62298
Plymouth09:00ZHaze61 5941014SE 10 61164
Cardiff-Wales Airport09:20ZPartly Cloudy61 5941015.1ENE 11 61219
Shoreham Airport09:00ZNot Avail.69 6341014.9NNW 6 696
Benson09:00ZNot Avail.64 5941016N 3 64206
Odiham09:00ZHaze65 5941015.5N 2 65403
Kenley09:00ZHaze66 6241015.5ENE 3 66557
Gravesend-Broadness09:00ZNot Avail.69 6141015.2E 6 699
Langdon Bay09:00ZNot Avail.67 6141015.7ESE 7 67383
Staverton Private 09:20ZPartly Cloudy64 5951016.1N 4 6495
Manchester Airport09:20ZClear72 5451018.1E 6 72226
Southampton / Weather Centre09:20ZClear66 5951015.1N 2 6629
Alderney / Channel Island09:20ZClear63 N/A51015.1SE 10 232
Pembrey Sands09:00ZNot Avail.63 5951015E 11 639
Valley09:00ZRain58 5551015.7NE 12 583
Manston09:00ZHaze69 6151015.5E 12 69180
Mildenhall Royal Air Force Base08:56ZClear72 6851016.5E 15 7232
Brize Norton09:00ZShowers61 5651016ENE 7 61288
Shobdon09:00ZNot Avail.60 5651017.2ENE 5 60324
Herstmonceux09:00ZHaze69 6351015.2S 3 69170
Birmingham / Airport09:20ZShowers nearby64 5961017.1ENE 7 64324
London / Gatwick Airport09:20ZClear72 6461015.1N 2 72203
London City Airport09:20ZClear70 6161015.1E 8 7016
Farnborough09:20ZPartly Cloudy68 6161016.1N 2 68213
Southend-On-Sea 09:20ZNot Avail.70 5961015.1E 10 7049
Lydd Airport 09:20ZNot Avail.68 6161015.1ESE 4 689
Blackpool Airport09:00ZNot Avail.71 556E 14 7132
Humberside09:20ZNot Avail.68 5561020.1ENE 13 68101
Fairford Royal Air Force Base08:56ZMist61 5761015.7NE 7 61285
Pershore09:00ZHaze61 5761017NNE 5 61104
High Wicombe Hqstc09:00ZHaze63 5961016ESE 4 63669
Northolt09:00ZCloudy68 5971015.5E 3 68124
Rhyl09:00ZNot Avail.59 5771018.5S 2 59252
Lake Vyrnwy09:00ZNot Avail.55 5571018.0E 7 Gusting to 26 551181
Church Lawford09:00ZNot Avail.66 5971016.9E 6 66351
Little Rissington09:00ZNot Avail.60 5771015.7E 8 60705
Shoeburyness09:00ZNot Avail.63 5871015.5ENE 12 636
Isle Of Portland09:00ZNot Avail.62 5971014.9E 9 62173
Saint Catherines Point09:00ZNot Avail.63 6071015.2ESE 3 6352
Thorney Island09:00ZNot Avail.66 6371014.9NNE 5 6613
Guernsey Airport09:00ZClear62 6081014.5SE 12 62334
London / Heathrow Airport09:00ZClear69 6081015.5NE 3 6978
Wick09:00ZNot Avail.51 4881027.5ENE 7 48127
Leeming09:00ZNot Avail.62 5381021.9NNE 13 62131
Fair Isle09:00ZClear52 4981028.3NE 15 47187
Sule Skerry09:00ZNot Avail.49 4681027.3E 14 4452
Charterhall09:00ZNot Avail.54 5181024.6NNE 10 51367
Eskdalemuir09:00ZNot Avail.55 5181023.5NNE 11 55793
Weybourne09:00ZNot Avail.62 5581018.9E 17 6268
Chivenor09:00ZClear64 6191014ESE 12 6426
Lyneham09:00ZNot Avail.59 5791016.0ENE 6 59475
Boulmer09:00ZNot Avail.58 5291024.1N 9 5875
Wainfleet09:00ZNot Avail.61 5591018.5ENE 18 Gusting to 25 619
Donna Nook09:00ZNot Avail.59 5391019.2ENE 20 5926
Portglenone09:00ZNot Avail.61 5191019.5ESE 5 61209
Jersey Airport09:00ZNot Avail.64 61101014.7SE 14 64275
Hawarden09:00ZNot Avail.66 55101017.9WNW 5 6632
Wittering09:00ZNot Avail.67 59101016.7NE 11 67275
Holbeach09:00ZNot Avail.64 57101017.9ENE 16 649
Strathallan09:00ZNot Avail.60 49101025.4E 7 60114
Glen Ogle09:00ZNot Avail.55 3010SSW 3 551850
Bournemouth Airport09:00ZNot Avail.67 62111015NNE 2 6736
Cranwell09:00ZNot Avail.68 57111018.2ENE 14 68219
Baltasound09:00ZNot Avail.55 46111029NE 12 5549
Trawscoed09:00ZNot Avail.65 57111016SE 6 Gusting to 16 65206
Bedford09:00ZNot Avail.67 60111016.5ENE 11 67278
Wattisham09:00ZNot Avail.69 55121016.7E 11 69285
Waddington09:00ZClear69 55121018.5E 14 69223
Lerwick09:00ZPartly Cloudy55 48121028.4NE 14 55269
Bingley09:00ZNot Avail.64 56121019.9E 11 64859
Milford Haven09:00ZNot Avail.61 56121014.5ESE 17 61144
Mumbles09:00ZNot Avail.60 57121015.4ENE 17 60114
Dunkeswell Aerodrome09:00ZNot Avail.62 58121014.5SSE 7 62826
Tain Range09:00ZNot Avail.50 46131027.4NE 7 4713
Aberporth09:00ZClear63 56131015.2E 8 63436
Lakenheath Royal Air Force Base08:56ZClear73 58131016.5ESE 15 7332
Linton-On-Ouse09:00ZNot Avail.67 54131020.7NE 11 6752
Marham09:00ZNot Avail.72 58131017.2E 12 7275
Aviemore09:00ZNot Avail.65 42131024.4NNE 6 65721
Cairngorm09:00ZNot Avail.50 3913SE 34 Gusting to 43 424084
Cairnwell09:00ZNot Avail.56 3913ESE 17 Gusting to 27 563061
Dundrennan09:00ZNot Avail.64 53131019.5ENE 24 Gusting to 32 64374
Warcop Range09:00ZNot Avail.66 52131019.9E 25 Gusting to 41 66744
Great Dun Fell09:00ZNot Avail.55 4713E 35 Gusting to 45 552778
Kirkwall Airport09:00ZNot Avail.54 48141028.0ENE 9 5168
Sumburgh Cape 09:20ZNot Avail.54 46141028.1NE 14 5016
Aberdeen / Dyce09:00ZNot Avail.57 46141026.9NNE 5 57213
Inverness / Dalcross09:20ZClear52 48141027.1NE 9 4929
Glasgow Airport09:20ZClear59 50141024.1E 16 5926
Loftus Samos09:00ZNot Avail.60 53141022.5NE 5 60190
Fylingdales09:00ZNot Avail.66 5314E 17 Gusting to 25 66859
Bridlington Mrsc09:00ZNot Avail.65 54141021.2ENE 17 6549
South Uist Range09:00ZNot Avail.62 51151022.7NNE 8 6232
Inverbervie09:00ZNot Avail.56 48151026NE 14 56439
Nottingham Weather Centre09:00ZNot Avail.66 56151018.2NE 11 66383
Redesdale09:00ZNot Avail.62 53161023.5ENE 9 62692
Kinloss09:00ZNot Avail.52 46171027.1NNE 9 4922
Leuchars09:00ZNot Avail.55 45171025.9E 15 5539
Keswick09:00ZNot Avail.69 54171019.7E 14 Gusting to 27 69265
Belfast / Aldergrove Airport09:00ZNot Avail.58 50181019.2ENE 9 58265
Belfast / Harbour09:20ZClear59 50181019.1N 8 5916
Spadeadam09:00ZNot Avail.61 51181022.0ENE 18 61935
Carlisle09:00ZNot Avail.63 54191022N 6391
Isle Of Man / Ronaldsway Airport09:00ZMostly Cloudy66 50201018.7ENE 19 Gusting to 26 6655
Newcastle 09:20ZNot Avail.63 52201023.2NE 8 63265
Tees-Side09:20ZNot Avail.61 52201022.1NNE 13 61121
East Midlands09:20ZNot Avail.68 59201018.1NE 14 68308
Tiree09:00ZNot Avail.66 50201021.4E 15 6639
Machrihanish09:00ZNot Avail.63 50201019.7E 18 Gusting to 28 6342
Lossiemouth09:00ZClear51 45201027.5E 8 4842
Norwich Weather Centre09:20ZNot Avail.70 57201018.1E 12 7045
Stansted Airport09:20ZClear72 61201016.1E 12 72347
Exeter Airport09:20ZPartly Cloudy64 61201014.1SE 10 6498
Coningsby Royal Air Force Base09:00ZClear68 54201018.2E 15 6822
Prestwick Rnas09:00ZNot Avail.59 50201021.7NE 13 5985
Drumalbin09:00ZNot Avail.55 51201023.7NE 11 55803
Lough Fea09:00ZNot Avail.60 47201019.5ESE 7 60738
Ballypatrick Forest09:00ZNot Avail.58 49201020.4ESE 19 Gusting to 26 58511
Glenanne09:00ZNot Avail.58 50201018.7E 8 58528
Saint Helena Island09:00ZNot Avail.66 61201020.2SE 14 661427
Yeovilton09:00ZClear65 60251015SE 3 6575
Walney Island09:00ZNot Avail.70 53251018.5ENE 15 Gusting to 25 7049
Leeds And Bradford09:20ZNot Avail.64 55251021.2NE 13 64682
West Freugh09:00ZNot Avail.67 51251019.5CALM6736
Stornoway09:00ZNot Avail.58 42251024.5ENE 11 5829
Aultbea09:00ZNot Avail.66 45251024.1S 3 6636
Aboyne09:00ZNot Avail.61 42251026.1ESE 4 61459
Saint Bees Head09:00ZNot Avail.71 55251019NE 11 71406
Crosby09:00ZNot Avail.71 55251018E 10 7126
Loch Glascanoch09:00ZNot Avail.62 42301025.0ESE 12 62869
Altnaharra09:00ZNot Avail.64 31301026.0ENE 9 64265
Tulloch Bridge09:00ZNot Avail.69 48301024E 6 Gusting to 16 69777
Aberdaron09:00ZNot Avail.64 55301016.4E 13 64311
Castlederg09:00ZNot Avail.65 52301019.0ENE 7 65167


Atlantic
Tropical Watch